createdAt,value
2018-07-31T00:00:01.867Z,88.79
2018-07-31T00:02:30.345Z,89.46
2018-07-31T00:04:58.899Z,89.86
2018-07-31T00:07:27.408Z,90.14
2018-07-31T00:09:55.882Z,92.03
2018-07-31T00:12:24.352Z,93.65
2018-07-31T00:14:52.886Z,94.43
2018-07-31T00:17:21.323Z,94.61
2018-07-31T00:19:49.786Z,93.16
2018-07-31T00:22:18.336Z,92.23
2018-07-31T00:24:46.831Z,93.22
2018-07-31T00:27:15.580Z,93.21
2018-07-31T00:29:44.010Z,93.55
2018-07-31T00:32:13.838Z,94.24
2018-07-31T00:34:42.538Z,94.03
2018-07-31T00:37:11.245Z,94.71
2018-07-31T00:39:39.697Z,95.25
2018-07-31T00:42:08.310Z,96.94
2018-07-31T00:44:36.767Z,96.50
2018-07-31T00:47:05.377Z,96.33
2018-07-31T00:49:33.863Z,96.86
2018-07-31T00:52:02.328Z,98.50
2018-07-31T00:54:31.086Z,96.68
2018-07-31T00:56:59.537Z,98.77
2018-07-31T00:59:28.037Z,99.83
2018-07-31T01:01:56.501Z,99.55
2018-07-31T01:04:24.937Z,100.00
2018-07-31T01:06:53.443Z,100.00
2018-07-31T01:09:21.980Z,100.00
2018-07-31T01:11:50.444Z,100.00
2018-07-31T01:14:18.960Z,100.00
2018-07-31T01:16:47.463Z,100.00
2018-07-31T01:19:15.885Z,100.00
2018-07-31T01:21:44.431Z,100.00
2018-07-31T01:24:12.924Z,100.00
2018-07-31T01:26:41.428Z,100.00
2018-07-31T01:29:10.036Z,100.00
2018-07-31T01:31:38.600Z,100.00
2018-07-31T01:34:07.111Z,100.00
2018-07-31T01:36:35.574Z,100.00
2018-07-31T01:39:05.138Z,100.00
2018-07-31T01:41:33.566Z,100.00
2018-07-31T01:44:02.185Z,100.00
2018-07-31T01:46:30.649Z,100.00
2018-07-31T01:48:59.283Z,100.00
2018-07-31T01:51:27.737Z,100.00
2018-07-31T01:53:56.223Z,100.00
2018-07-31T01:56:25.003Z,100.00
2018-07-31T01:58:53.447Z,100.00
2018-07-31T02:01:21.967Z,100.00
2018-07-31T02:03:50.612Z,100.00
2018-07-31T02:06:23.411Z,100.00
2018-07-31T02:08:51.870Z,100.00
2018-07-31T02:11:20.349Z,100.00
2018-07-31T02:13:48.803Z,100.00
2018-07-31T02:16:18.271Z,100.00
2018-07-31T02:18:46.742Z,100.00
2018-07-31T02:21:15.271Z,100.00
2018-07-31T02:23:43.734Z,100.00
2018-07-31T02:26:12.200Z,100.00
2018-07-31T02:28:40.716Z,100.00
2018-07-31T02:31:09.153Z,100.00
2018-07-31T02:33:37.631Z,100.00
2018-07-31T02:36:06.114Z,100.00
2018-07-31T02:38:34.567Z,100.00
2018-07-31T02:41:03.282Z,100.00
2018-07-31T02:43:31.695Z,100.00
2018-07-31T02:46:00.315Z,100.00
2018-07-31T02:48:28.844Z,100.00
2018-07-31T02:50:57.331Z,100.00
2018-07-31T02:53:26.036Z,100.00
2018-07-31T02:55:54.460Z,100.00
2018-07-31T02:58:23.012Z,100.00
2018-07-31T03:00:51.418Z,96.72
2018-07-31T03:03:19.867Z,96.26
2018-07-31T03:05:48.357Z,96.68
2018-07-31T03:08:16.857Z,97.63
2018-07-31T03:10:45.299Z,94.15
2018-07-31T03:13:13.729Z,92.36
2018-07-31T03:15:42.417Z,94.40
2018-07-31T03:18:10.911Z,99.61
2018-07-31T03:20:39.333Z,100.00
2018-07-31T03:23:07.811Z,97.67
2018-07-31T03:25:36.292Z,98.59
2018-07-31T03:28:04.765Z,97.58
2018-07-31T03:30:33.230Z,100.00
2018-07-31T03:33:01.658Z,98.12
2018-07-31T03:35:30.075Z,96.21
2018-07-31T03:37:58.591Z,99.91
2018-07-31T03:40:27.044Z,100.00
2018-07-31T03:42:55.922Z,100.00
2018-07-31T03:45:24.386Z,100.00
2018-07-31T03:47:52.913Z,100.00
2018-07-31T03:50:21.391Z,100.00
2018-07-31T03:52:49.805Z,100.00
2018-07-31T03:55:18.249Z,100.00
2018-07-31T03:57:46.711Z,100.00
2018-07-31T04:00:15.839Z,100.00
2018-07-31T04:02:44.444Z,100.00
2018-07-31T04:05:13.136Z,100.00
2018-07-31T04:07:41.607Z,100.00
2018-07-31T04:10:10.033Z,100.00
2018-07-31T04:12:38.692Z,100.00
2018-07-31T04:15:07.122Z,100.00
2018-07-31T04:17:35.590Z,100.00
2018-07-31T04:20:04.161Z,100.00
2018-07-31T04:22:33.132Z,100.00
2018-07-31T04:25:01.859Z,100.00
2018-07-31T04:27:30.723Z,100.00
2018-07-31T04:29:59.189Z,100.00
2018-07-31T04:32:27.709Z,100.00
2018-07-31T04:34:56.513Z,100.00
2018-07-31T04:37:24.978Z,100.00
2018-07-31T04:39:53.728Z,100.00
2018-07-31T04:42:22.255Z,100.00
2018-07-31T04:44:50.688Z,100.00
2018-07-31T04:47:19.172Z,100.00
2018-07-31T04:49:47.651Z,100.00
2018-07-31T04:52:16.116Z,100.00
2018-07-31T04:54:44.792Z,100.00
2018-07-31T04:57:13.206Z,100.00
2018-07-31T04:59:41.918Z,100.00
2018-07-31T05:02:10.375Z,100.00
2018-07-31T05:04:38.818Z,100.00
2018-07-31T05:07:07.339Z,100.00
2018-07-31T05:09:35.804Z,100.00
2018-07-31T05:12:04.524Z,100.00
2018-07-31T05:14:33.008Z,100.00
2018-07-31T05:17:01.464Z,100.00
2018-07-31T05:19:29.933Z,100.00
2018-07-31T05:21:58.384Z,98.74
2018-07-31T05:24:26.863Z,98.21
2018-07-31T05:26:55.305Z,100.00
2018-07-31T05:29:23.781Z,97.23
2018-07-31T05:31:52.264Z,99.37
2018-07-31T05:34:20.698Z,97.25
2018-07-31T05:36:49.256Z,95.71
2018-07-31T05:39:17.784Z,95.53
2018-07-31T05:41:46.255Z,95.21
2018-07-31T05:44:14.711Z,94.22
2018-07-31T05:46:43.225Z,92.93
2018-07-31T05:49:11.682Z,91.46
2018-07-31T05:51:40.121Z,92.15
2018-07-31T05:57:07.827Z,91.16
2018-07-31T05:59:36.280Z,89.26
2018-07-31T06:02:04.888Z,90.85
2018-07-31T06:04:33.385Z,91.42
2018-07-31T06:07:01.828Z,90.54
2018-07-31T06:09:30.266Z,90.29
2018-07-31T06:11:58.699Z,89.08
2018-07-31T06:14:27.383Z,88.82
2018-07-31T06:16:55.839Z,87.73
2018-07-31T06:19:24.261Z,88.04
2018-07-31T06:21:53.093Z,86.29
2018-07-31T06:24:21.503Z,85.34
2018-07-31T06:26:50.343Z,84.69
2018-07-31T06:29:18.813Z,86.06
2018-07-31T06:31:47.252Z,86.66
2018-07-31T06:34:15.686Z,84.42
2018-07-31T06:36:44.119Z,84.02
2018-07-31T06:39:12.735Z,84.95
2018-07-31T06:41:41.186Z,83.46
2018-07-31T06:44:09.655Z,85.11
2018-07-31T06:46:38.656Z,83.08
2018-07-31T06:49:07.174Z,80.39
2018-07-31T06:51:35.868Z,77.32
2018-07-31T06:54:04.385Z,77.88
2018-07-31T06:56:32.944Z,77.28
2018-07-31T06:59:01.407Z,75.76
2018-07-31T07:01:29.889Z,77.56
2018-07-31T07:03:58.600Z,77.01
2018-07-31T07:06:27.047Z,75.55
2018-07-31T07:08:55.516Z,75.36
2018-07-31T07:11:23.967Z,74.91
2018-07-31T07:13:52.437Z,74.74
2018-07-31T07:16:20.930Z,73.28
2018-07-31T07:18:49.927Z,72.68
2018-07-31T07:21:18.404Z,72.22
2018-07-31T07:23:46.849Z,75.08
2018-07-31T07:26:15.517Z,71.94
2018-07-31T07:28:43.930Z,67.86
2018-07-31T07:31:12.344Z,67.75
2018-07-31T07:33:40.785Z,67.40
2018-07-31T07:36:09.210Z,68.12
2018-07-31T07:38:38.576Z,66.22
2018-07-31T07:41:07.496Z,66.59
2018-07-31T07:43:35.944Z,67.05
2018-07-31T07:46:04.593Z,65.56
2018-07-31T07:48:33.035Z,63.98
2018-07-31T07:51:01.519Z,63.29
2018-07-31T07:53:30.068Z,62.98
2018-07-31T07:55:58.456Z,60.93
2018-07-31T07:58:27.094Z,63.79
2018-07-31T08:00:55.777Z,64.94
2018-07-31T08:03:24.250Z,65.94
2018-07-31T08:05:53.268Z,65.09
2018-07-31T08:08:21.844Z,63.45
2018-07-31T08:10:50.527Z,62.58
2018-07-31T08:13:19.207Z,62.23
2018-07-31T08:15:47.679Z,60.82
2018-07-31T08:18:16.130Z,62.25
2018-07-31T08:20:44.594Z,60.73
2018-07-31T08:23:13.376Z,58.69
2018-07-31T08:25:42.105Z,60.75
2018-07-31T08:28:10.772Z,59.31
2018-07-31T08:30:39.210Z,58.76
2018-07-31T08:33:07.803Z,59.12
2018-07-31T08:35:36.286Z,59.91
2018-07-31T08:38:04.855Z,58.12
2018-07-31T08:40:33.404Z,57.13
2018-07-31T08:43:01.904Z,56.63
2018-07-31T08:45:30.711Z,56.46
2018-07-31T08:47:59.165Z,57.70
2018-07-31T08:50:27.724Z,58.78
2018-07-31T08:52:56.235Z,55.58
2018-07-31T08:55:26.264Z,57.08
2018-07-31T08:57:54.762Z,55.49
2018-07-31T09:00:23.246Z,53.83
2018-07-31T09:02:51.780Z,53.82
2018-07-31T09:05:20.399Z,53.08
2018-07-31T09:07:48.808Z,51.55
2018-07-31T09:10:17.503Z,51.33
2018-07-31T09:12:46.203Z,51.91
2018-07-31T09:15:15.071Z,50.91
2018-07-31T09:17:43.510Z,51.21
2018-07-31T09:20:11.916Z,52.53
2018-07-31T09:22:40.347Z,51.96
2018-07-31T09:25:09.055Z,51.55
2018-07-31T09:27:37.518Z,51.38
2018-07-31T09:30:06.674Z,50.48
2018-07-31T09:32:40.470Z,49.59
2018-07-31T09:35:08.919Z,49.09
2018-07-31T09:37:37.732Z,50.07
2018-07-31T09:40:06.193Z,49.02
2018-07-31T09:42:34.784Z,49.07
2018-07-31T09:45:03.272Z,47.98
2018-07-31T09:47:31.704Z,47.66
2018-07-31T09:50:00.136Z,45.88
2018-07-31T09:52:28.587Z,46.08
2018-07-31T09:54:57.058Z,45.73
2018-07-31T09:57:25.724Z,45.36
2018-07-31T09:59:54.376Z,45.94
2018-07-31T10:02:23.062Z,46.07
2018-07-31T10:04:51.498Z,46.45
2018-07-31T10:07:20.134Z,44.09
2018-07-31T10:10:18.999Z,43.80
2018-07-31T10:12:47.427Z,45.02
2018-07-31T10:15:15.839Z,44.53
2018-07-31T10:17:44.380Z,44.63
2018-07-31T10:20:12.764Z,44.75
2018-07-31T10:22:41.204Z,44.38
2018-07-31T10:25:09.607Z,43.00
2018-07-31T10:27:38.455Z,43.36
2018-07-31T10:30:07.671Z,42.56
2018-07-31T10:32:36.182Z,43.63
2018-07-31T10:35:05.159Z,45.51
2018-07-31T10:37:33.602Z,42.20
2018-07-31T10:40:02.077Z,42.71
2018-07-31T10:42:30.528Z,44.25
2018-07-31T10:44:59.111Z,40.66
2018-07-31T10:47:27.756Z,42.80
2018-07-31T10:49:56.422Z,42.73
2018-07-31T10:52:25.229Z,41.35
2018-07-31T10:54:53.652Z,42.46
2018-07-31T10:57:22.079Z,40.22
2018-07-31T10:59:50.638Z,41.14
2018-07-31T11:02:19.000Z,40.38
2018-07-31T11:04:47.483Z,39.33
2018-07-31T11:07:15.903Z,37.69
2018-07-31T11:09:44.388Z,37.37
2018-07-31T11:12:13.263Z,42.93
2018-07-31T11:14:41.741Z,42.56
2018-07-31T11:17:10.239Z,41.05
2018-07-31T11:19:38.681Z,38.77
2018-07-31T11:22:07.169Z,33.89
2018-07-31T11:24:35.647Z,35.39
2018-07-31T11:27:04.175Z,33.61
2018-07-31T11:30:35.591Z,34.37
2018-07-31T11:33:04.124Z,35.90
2018-07-31T11:35:32.590Z,34.74
2018-07-31T11:38:01.118Z,34.92
2018-07-31T11:40:29.587Z,34.12
2018-07-31T11:42:58.043Z,32.80
2018-07-31T11:45:26.525Z,32.39
2018-07-31T11:47:54.948Z,33.88
2018-07-31T11:50:23.356Z,33.16
2018-07-31T11:52:52.958Z,32.98
2018-07-31T11:55:21.392Z,31.74
2018-07-31T11:57:50.044Z,32.86
2018-07-31T12:00:18.678Z,33.26
2018-07-31T12:02:47.143Z,33.23
2018-07-31T12:05:15.786Z,33.76
2018-07-31T12:07:44.262Z,29.04
2018-07-31T12:10:12.745Z,27.68
2018-07-31T12:12:41.149Z,28.08
2018-07-31T12:15:09.609Z,28.38
2018-07-31T12:17:38.098Z,27.95
2018-07-31T12:20:06.792Z,28.54
2018-07-31T12:22:35.258Z,30.70
2018-07-31T12:25:03.732Z,33.30
2018-07-31T12:27:33.144Z,31.24
2018-07-31T12:30:01.590Z,25.71
2018-07-31T12:32:30.053Z,27.21
2018-07-31T12:34:58.508Z,26.98
2018-07-31T12:37:26.963Z,29.04
2018-07-31T12:39:55.417Z,26.89
2018-07-31T12:42:38.710Z,26.59
2018-07-31T12:45:07.235Z,27.08
2018-07-31T12:47:36.509Z,26.16
2018-07-31T12:50:05.572Z,25.83
2018-07-31T12:52:34.056Z,23.37
2018-07-31T12:55:02.695Z,23.45
2018-07-31T12:57:31.675Z,27.29
2018-07-31T13:00:00.163Z,26.02
2018-07-31T13:02:28.600Z,22.99
2018-07-31T13:04:57.223Z,25.92
2018-07-31T13:07:25.672Z,25.50
2018-07-31T13:09:54.138Z,22.87
2018-07-31T13:12:22.557Z,24.43
2018-07-31T13:14:51.066Z,24.74
2018-07-31T13:17:19.464Z,25.75
2018-07-31T13:19:48.078Z,24.67
2018-07-31T13:22:16.538Z,24.63
2018-07-31T13:24:44.956Z,26.51
2018-07-31T13:27:13.402Z,25.50
2018-07-31T13:29:41.831Z,25.80
2018-07-31T13:32:10.636Z,24.78
2018-07-31T13:34:39.086Z,22.17
2018-07-31T13:37:08.009Z,24.18
2018-07-31T13:39:36.433Z,25.15
2018-07-31T13:42:05.081Z,26.17
2018-07-31T13:44:33.775Z,25.66
2018-07-31T13:47:02.167Z,26.04
2018-07-31T13:49:30.646Z,23.34
2018-07-31T13:51:59.119Z,26.32
2018-07-31T13:54:27.589Z,23.45
2018-07-31T13:56:56.046Z,23.93
2018-07-31T13:59:24.511Z,24.66
2018-07-31T14:01:53.046Z,23.94
2018-07-31T14:04:21.768Z,24.65
2018-07-31T14:06:50.413Z,25.21
2018-07-31T14:09:18.818Z,24.83
2018-07-31T14:11:47.504Z,26.81
2018-07-31T14:14:15.983Z,24.77
2018-07-31T14:16:44.415Z,24.58
2018-07-31T14:19:12.865Z,25.41
2018-07-31T14:21:41.355Z,23.58
2018-07-31T14:24:09.804Z,23.94
2018-07-31T14:26:38.242Z,25.46
2018-07-31T14:29:06.687Z,24.94
2018-07-31T14:31:35.138Z,25.93
2018-07-31T14:34:03.700Z,26.04
2018-07-31T14:36:32.158Z,25.82
2018-07-31T14:39:00.603Z,25.87
2018-07-31T14:41:43.529Z,25.57
2018-07-31T14:44:12.036Z,23.95
2018-07-31T14:46:40.517Z,24.00
2018-07-31T14:49:09.167Z,25.36
2018-07-31T14:51:37.666Z,23.16
2018-07-31T14:54:08.088Z,23.80
2018-07-31T14:56:36.507Z,23.13
2018-07-31T14:59:05.301Z,23.49
2018-07-31T15:01:33.782Z,23.14
2018-07-31T15:04:02.578Z,24.50
2018-07-31T15:06:31.028Z,25.23
2018-07-31T15:08:59.648Z,24.86
2018-07-31T15:11:28.066Z,24.39
2018-07-31T15:13:56.508Z,25.01
2018-07-31T15:16:25.099Z,23.61
2018-07-31T15:18:53.512Z,24.95
2018-07-31T15:21:22.049Z,23.83
2018-07-31T15:23:50.504Z,24.20
2018-07-31T15:26:19.219Z,24.98
2018-07-31T15:28:47.672Z,23.31
2018-07-31T15:31:16.174Z,23.57
2018-07-31T15:33:44.709Z,24.44
2018-07-31T15:36:13.127Z,23.97
2018-07-31T15:38:41.560Z,24.02
2018-07-31T15:41:10.056Z,24.00
2018-07-31T15:43:38.495Z,25.03
2018-07-31T15:46:07.012Z,23.72
2018-07-31T15:48:35.763Z,23.57
2018-07-31T15:51:04.284Z,23.91
2018-07-31T15:53:32.720Z,24.01
2018-07-31T15:56:01.189Z,24.27
2018-07-31T15:58:29.722Z,24.26
2018-07-31T16:00:58.239Z,24.38
2018-07-31T16:03:26.774Z,23.98
2018-07-31T16:05:55.228Z,23.68
2018-07-31T16:08:23.669Z,23.16
2018-07-31T16:10:52.262Z,23.97
2018-07-31T16:13:20.705Z,23.31
2018-07-31T16:15:49.377Z,24.14
2018-07-31T16:18:17.859Z,23.37
2018-07-31T16:20:46.336Z,22.41
2018-07-31T16:23:14.885Z,23.12
2018-07-31T16:25:43.457Z,23.60
2018-07-31T16:28:12.073Z,24.11
2018-07-31T16:30:40.523Z,23.82
2018-07-31T16:33:09.016Z,24.43
2018-07-31T16:35:37.527Z,22.61
2018-07-31T16:38:06.347Z,22.61
2018-07-31T16:40:34.811Z,23.98
2018-07-31T16:43:03.313Z,23.00
2018-07-31T16:45:31.859Z,22.73
2018-07-31T16:48:00.355Z,23.70
2018-07-31T16:50:28.864Z,23.08
2018-07-31T16:52:57.299Z,24.43
2018-07-31T16:55:25.687Z,23.67
2018-07-31T16:57:54.139Z,24.89
2018-07-31T17:00:22.636Z,23.39
2018-07-31T17:02:51.136Z,24.59
2018-07-31T17:05:19.687Z,24.04
2018-07-31T17:07:48.225Z,25.02
2018-07-31T17:10:16.643Z,23.43
2018-07-31T17:12:45.071Z,25.52
2018-07-31T17:15:13.507Z,23.54
2018-07-31T17:17:42.304Z,24.72
2018-07-31T17:20:11.052Z,24.66
2018-07-31T17:22:39.646Z,24.80
2018-07-31T17:25:08.087Z,24.74
2018-07-31T17:27:36.558Z,23.96
2018-07-31T17:30:05.800Z,25.55
2018-07-31T17:32:34.305Z,25.71
2018-07-31T17:35:02.828Z,25.95
2018-07-31T17:37:31.227Z,25.99
2018-07-31T17:39:59.999Z,28.27
2018-07-31T17:42:28.472Z,27.30
2018-07-31T17:44:57.195Z,27.61
2018-07-31T17:47:25.711Z,26.73
2018-07-31T17:49:54.163Z,28.73
2018-07-31T17:52:22.747Z,29.01
2018-07-31T17:54:51.414Z,30.33
2018-07-31T17:57:19.890Z,30.20
2018-07-31T17:59:48.335Z,30.80
2018-07-31T18:02:16.739Z,31.70
2018-07-31T18:04:45.751Z,32.23
2018-07-31T18:07:14.200Z,32.26
2018-07-31T18:09:42.660Z,33.20
2018-07-31T18:12:11.187Z,32.50
2018-07-31T18:14:39.659Z,32.08
2018-07-31T18:17:08.030Z,32.69
2018-07-31T18:19:36.456Z,33.19
2018-07-31T18:22:05.588Z,33.42
2018-07-31T18:24:34.083Z,35.46
2018-07-31T18:27:02.652Z,35.51
2018-07-31T18:29:31.136Z,35.63
2018-07-31T18:32:00.396Z,36.22
2018-07-31T18:34:29.241Z,38.17
2018-07-31T18:36:57.660Z,37.00
2018-07-31T18:39:26.112Z,37.37
2018-07-31T18:41:54.587Z,38.05
2018-07-31T18:44:23.075Z,40.59
2018-07-31T18:46:51.711Z,38.56
2018-07-31T18:49:20.369Z,40.19
2018-07-31T18:51:49.087Z,40.19
2018-07-31T18:54:17.656Z,39.97
2018-07-31T18:56:46.100Z,40.22
2018-07-31T18:59:14.543Z,40.63
2018-07-31T19:01:43.048Z,40.56
2018-07-31T19:04:11.575Z,41.00
2018-07-31T19:06:40.026Z,42.04
2018-07-31T19:09:12.597Z,42.45
2018-07-31T19:11:42.783Z,42.23
2018-07-31T19:14:11.463Z,44.58
2018-07-31T19:16:39.983Z,41.81
2018-07-31T19:19:08.623Z,42.17
2018-07-31T19:21:37.527Z,42.91
2018-07-31T19:24:05.984Z,42.10
2018-07-31T19:26:34.694Z,43.83
2018-07-31T19:29:03.264Z,42.98
2018-07-31T19:31:31.796Z,44.41
2018-07-31T19:34:00.385Z,44.81
2018-07-31T19:36:29.132Z,45.33
2018-07-31T19:38:57.583Z,46.08
2018-07-31T19:41:26.356Z,45.48
2018-07-31T19:43:54.940Z,46.18
2018-07-31T19:46:23.401Z,45.12
2018-07-31T19:48:52.247Z,46.91
2018-07-31T19:51:20.699Z,47.20
2018-07-31T19:53:49.097Z,46.69
2018-07-31T19:56:17.579Z,47.58
2018-07-31T19:58:46.091Z,48.05
2018-07-31T20:01:14.551Z,48.52
2018-07-31T20:03:43.047Z,48.66
2018-07-31T20:06:11.528Z,49.42
2018-07-31T20:08:40.176Z,49.97
2018-07-31T20:11:08.854Z,49.21
2018-07-31T20:13:37.375Z,50.33
2018-07-31T20:16:06.397Z,51.03
2018-07-31T20:18:35.530Z,51.48
2018-07-31T20:21:04.380Z,53.01
2018-07-31T20:23:32.934Z,53.36
2018-07-31T20:26:01.437Z,54.01
2018-07-31T20:28:29.874Z,53.11
2018-07-31T20:30:58.364Z,54.93
2018-07-31T20:33:26.831Z,55.43
2018-07-31T20:35:55.312Z,55.36
2018-07-31T20:38:23.760Z,55.63
2018-07-31T20:40:52.218Z,55.49
2018-07-31T20:43:21.215Z,56.24
2018-07-31T20:45:49.946Z,56.24
2018-07-31T20:48:18.451Z,55.71
2018-07-31T20:50:46.890Z,54.42
2018-07-31T20:53:45.787Z,54.62
2018-07-31T20:56:14.653Z,54.85
2018-07-31T20:58:43.124Z,59.01
2018-07-31T21:01:11.543Z,58.52
2018-07-31T21:03:40.053Z,58.37
2018-07-31T21:06:08.444Z,57.58
2018-07-31T21:08:36.918Z,56.36
2018-07-31T21:11:05.376Z,57.04
2018-07-31T21:13:33.830Z,57.96
2018-07-31T21:16:02.477Z,57.86
2018-07-31T21:18:30.985Z,60.41
2018-07-31T21:20:59.588Z,59.76
2018-07-31T21:23:28.028Z,61.95
2018-07-31T21:25:56.513Z,61.84
2018-07-31T21:28:26.503Z,62.69
2018-07-31T21:30:54.951Z,63.22
2018-07-31T21:33:23.842Z,62.31
2018-07-31T21:35:52.266Z,62.05
2018-07-31T21:38:21.248Z,61.50
2018-07-31T21:40:49.718Z,61.39
2018-07-31T21:43:18.246Z,61.82
2018-07-31T21:45:46.697Z,62.98
2018-07-31T21:48:15.149Z,63.20
2018-07-31T21:50:43.660Z,63.58
2018-07-31T21:53:12.102Z,62.88
2018-07-31T21:55:40.922Z,63.97
2018-07-31T21:58:09.343Z,64.05
2018-07-31T22:00:42.993Z,64.51
2018-07-31T22:03:11.418Z,64.58
2018-07-31T22:05:39.892Z,65.14
2018-07-31T22:08:08.316Z,65.10
2018-07-31T22:10:36.782Z,65.85
2018-07-31T22:13:05.207Z,67.83
2018-07-31T22:15:33.746Z,68.80
2018-07-31T22:18:02.201Z,69.73
2018-07-31T22:20:30.638Z,68.44
2018-07-31T22:22:59.274Z,68.61
2018-07-31T22:25:27.934Z,68.97
2018-07-31T22:27:56.668Z,68.54
2018-07-31T22:30:25.104Z,68.16
2018-07-31T22:32:54.282Z,67.62
2018-07-31T22:35:22.690Z,67.08
2018-07-31T22:37:51.176Z,66.36
2018-07-31T22:40:19.635Z,65.86
2018-07-31T22:42:48.136Z,64.94
2018-07-31T22:45:17.047Z,65.62
2018-07-31T22:47:45.482Z,66.81
2018-07-31T22:50:13.898Z,68.62
2018-07-31T22:52:42.315Z,65.18
2018-07-31T22:55:10.974Z,64.81
2018-07-31T22:57:39.389Z,66.74
2018-07-31T23:00:07.982Z,65.35
2018-07-31T23:02:38.224Z,65.93
2018-07-31T23:05:06.756Z,68.04
2018-07-31T23:07:35.648Z,68.33
2018-07-31T23:10:04.878Z,65.40
2018-07-31T23:12:34.169Z,65.61
2018-07-31T23:15:03.479Z,65.70
2018-07-31T23:17:32.472Z,65.79
2018-07-31T23:20:03.667Z,66.17
2018-07-31T23:22:45.630Z,66.63
2018-07-31T23:25:14.175Z,67.30
2018-07-31T23:27:42.619Z,66.95
2018-07-31T23:30:11.427Z,67.41
2018-07-31T23:32:40.500Z,70.92
2018-07-31T23:35:09.027Z,69.19
2018-07-31T23:37:38.073Z,69.23
2018-07-31T23:40:07.619Z,70.21
2018-07-31T23:42:36.056Z,71.06
2018-07-31T23:45:05.061Z,71.21
2018-07-31T23:47:33.701Z,71.44
2018-07-31T23:50:02.669Z,71.44
2018-07-31T23:52:31.594Z,71.73
2018-07-31T23:55:00.044Z,71.15
2018-07-31T23:57:28.776Z,71.05
2018-07-31T23:59:57.230Z,71.27
